createdAt,value
2023-02-05T00:01:37.043Z,64.27
2023-02-05T00:04:05.933Z,70.00
2023-02-05T00:06:34.627Z,63.70
2023-02-05T00:09:02.971Z,73.00
2023-02-05T00:11:31.648Z,67.27
2023-02-05T00:13:59.979Z,67.97
2023-02-05T00:16:28.728Z,75.90
2023-02-05T00:18:58.483Z,66.47
2023-02-05T00:21:27.084Z,64.63
2023-02-05T00:23:55.694Z,59.87
2023-02-05T00:26:24.464Z,64.07
2023-02-05T00:28:54.302Z,65.87
2023-02-05T00:31:24.704Z,72.70
2023-02-05T00:33:53.472Z,66.80
2023-02-05T00:36:24.388Z,67.23
2023-02-05T00:38:53.622Z,62.37
2023-02-05T00:41:22.560Z,64.10
2023-02-05T00:43:51.048Z,65.43
2023-02-05T00:46:20.306Z,59.17
2023-02-05T00:48:48.767Z,73.53
2023-02-05T00:51:17.699Z,73.07
2023-02-05T00:53:47.784Z,67.17
2023-02-05T00:56:16.480Z,68.73
2023-02-05T00:58:47.864Z,79.47
2023-02-05T01:01:16.944Z,58.23
2023-02-05T01:03:46.609Z,57.90
2023-02-05T01:06:15.529Z,58.17
2023-02-05T01:08:43.981Z,59.13
2023-02-05T01:11:14.981Z,57.60
2023-02-05T01:13:43.455Z,60.93
2023-02-05T01:16:12.157Z,58.87
2023-02-05T01:18:40.836Z,57.83
2023-02-05T01:21:09.956Z,63.13
2023-02-05T01:23:39.428Z,60.93
2023-02-05T01:26:08.262Z,58.50
2023-02-05T01:28:38.044Z,57.90
2023-02-05T01:31:06.936Z,57.90
2023-02-05T01:33:36.464Z,56.73
2023-02-05T01:36:05.707Z,58.27
2023-02-05T01:38:35.494Z,56.03
2023-02-05T01:41:04.157Z,57.73
2023-02-05T01:43:32.654Z,59.97
2023-02-05T01:46:20.192Z,60.27
2023-02-05T01:48:54.858Z,60.60
2023-02-05T01:51:24.260Z,61.47
2023-02-05T01:53:53.343Z,63.67
2023-02-05T01:56:26.974Z,68.60
2023-02-05T01:59:01.047Z,69.90
2023-02-05T02:01:32.598Z,65.83
2023-02-05T02:04:04.572Z,68.73
2023-02-05T02:06:35.222Z,60.77
2023-02-05T02:09:06.233Z,61.90
2023-02-05T02:11:39.143Z,61.83
2023-02-05T02:14:10.392Z,60.27
2023-02-05T02:16:41.714Z,62.87
2023-02-05T02:19:18.560Z,60.57
2023-02-05T02:22:05.608Z,57.93
2023-02-05T02:24:54.000Z,54.73
2023-02-05T02:27:43.211Z,56.70
2023-02-05T02:30:18.165Z,57.33
2023-02-05T02:32:52.941Z,58.70
2023-02-05T02:35:28.485Z,60.00
2023-02-05T02:38:02.935Z,59.97
2023-02-05T02:40:37.249Z,57.40
2023-02-05T02:43:12.197Z,56.97
2023-02-05T02:45:50.058Z,54.37
2023-02-05T02:48:22.937Z,60.73
2023-02-05T02:50:55.041Z,56.27
2023-02-05T02:53:27.717Z,60.77
2023-02-05T02:55:58.198Z,59.27
2023-02-05T02:58:33.887Z,57.00
2023-02-05T03:01:04.670Z,62.73
2023-02-05T03:03:37.082Z,67.87
2023-02-05T03:06:07.658Z,76.47
2023-02-05T03:08:42.825Z,66.13
2023-02-05T03:11:15.503Z,70.60
2023-02-05T03:13:47.888Z,64.23
2023-02-05T03:16:21.753Z,64.27
2023-02-05T03:18:50.827Z,59.53
2023-02-05T03:21:23.813Z,63.63
2023-02-05T03:23:52.725Z,63.00
2023-02-05T03:26:25.661Z,62.03
2023-02-05T03:29:03.537Z,64.00
2023-02-05T03:31:42.129Z,62.90
2023-02-05T03:34:23.027Z,66.03
2023-02-05T03:37:01.754Z,65.30
2023-02-05T03:39:46.948Z,66.57
2023-02-05T03:42:30.318Z,65.93
2023-02-05T03:45:14.581Z,61.73
2023-02-05T03:47:53.903Z,63.20
2023-02-05T03:50:27.907Z,70.13
2023-02-05T03:53:01.241Z,77.37
2023-02-05T03:55:33.436Z,70.80
2023-02-05T03:58:07.327Z,70.90
2023-02-05T04:00:40.185Z,70.90
2023-02-05T04:03:08.890Z,60.93
2023-02-05T04:05:38.793Z,59.03
2023-02-05T04:08:07.893Z,56.93
2023-02-05T04:10:43.802Z,55.93
2023-02-05T04:13:13.877Z,60.03
2023-02-05T04:15:45.771Z,61.13
2023-02-05T04:18:17.325Z,61.63
2023-02-05T04:20:47.551Z,58.17
2023-02-05T04:23:19.222Z,59.23
2023-02-05T04:25:48.329Z,61.03
2023-02-05T04:28:20.365Z,61.43
2023-02-05T04:30:51.002Z,67.73
2023-02-05T04:33:19.536Z,66.90
2023-02-05T04:35:48.360Z,73.10
2023-02-05T04:38:17.112Z,68.07
2023-02-05T04:40:46.803Z,70.10
2023-02-05T04:43:15.208Z,80.13
2023-02-05T04:45:58.684Z,74.87
2023-02-05T04:48:28.441Z,71.00
2023-02-05T04:50:57.032Z,69.53
2023-02-05T04:53:25.428Z,63.87
2023-02-05T04:55:54.943Z,66.63
2023-02-05T04:58:23.308Z,76.37
2023-02-05T05:00:51.960Z,71.87
2023-02-05T05:03:20.388Z,70.77
2023-02-05T05:05:50.596Z,66.07
2023-02-05T05:08:19.928Z,61.67
2023-02-05T05:10:48.972Z,58.10
2023-02-05T05:13:17.327Z,89.07
2023-02-05T05:15:46.068Z,92.50
2023-02-05T05:18:14.814Z,92.77
2023-02-05T05:20:43.548Z,90.80
2023-02-05T05:23:13.862Z,75.67
2023-02-05T05:25:43.215Z,72.90
2023-02-05T05:28:12.644Z,65.17
2023-02-05T05:30:43.391Z,63.70
2023-02-05T05:33:12.781Z,61.47
2023-02-05T05:35:41.450Z,60.07
2023-02-05T05:38:09.820Z,54.63
2023-02-05T05:40:57.987Z,60.53
2023-02-05T05:43:43.538Z,65.07
2023-02-05T05:46:27.579Z,70.43
2023-02-05T05:48:57.796Z,73.20
2023-02-05T05:51:28.072Z,66.77
2023-02-05T05:53:56.819Z,66.93
2023-02-05T05:56:26.887Z,66.50
2023-02-05T05:58:55.323Z,67.37
2023-02-05T06:01:23.912Z,67.80
2023-02-05T06:03:52.313Z,67.13
2023-02-05T06:06:36.154Z,60.13
2023-02-05T06:09:04.604Z,62.03
2023-02-05T06:11:34.707Z,60.63
2023-02-05T06:14:03.099Z,54.93
2023-02-05T06:16:31.883Z,55.57
2023-02-05T06:19:00.203Z,58.43
2023-02-05T06:21:29.023Z,57.57
2023-02-05T06:23:57.404Z,61.77
2023-02-05T06:26:26.024Z,61.00
2023-02-05T06:28:57.192Z,59.07
2023-02-05T06:31:25.922Z,65.13
2023-02-05T06:33:54.376Z,57.13
2023-02-05T06:36:23.060Z,58.53
2023-02-05T06:38:51.415Z,65.20
2023-02-05T06:41:20.053Z,60.93
2023-02-05T06:43:48.412Z,59.10
2023-02-05T06:46:18.417Z,59.83
2023-02-05T06:48:46.776Z,59.97
2023-02-05T06:51:15.440Z,62.00
2023-02-05T06:53:43.864Z,61.50
2023-02-05T06:56:12.479Z,59.77
2023-02-05T06:58:40.877Z,66.73
2023-02-05T07:01:09.507Z,82.97
2023-02-05T07:03:39.314Z,69.40
2023-02-05T07:06:08.490Z,68.23
2023-02-05T07:08:37.073Z,70.23
2023-02-05T07:11:06.049Z,65.70
2023-02-05T07:13:34.376Z,61.87
2023-02-05T07:16:05.287Z,61.43
2023-02-05T07:18:34.545Z,58.10
2023-02-05T07:21:08.803Z,59.83
2023-02-05T07:23:37.773Z,56.70
2023-02-05T07:26:11.046Z,57.20
2023-02-05T07:28:39.573Z,62.87
2023-02-05T07:31:10.746Z,61.27
2023-02-05T07:33:39.518Z,61.43
2023-02-05T07:36:12.023Z,62.30
2023-02-05T07:38:40.623Z,69.80
2023-02-05T07:41:11.537Z,65.93
2023-02-05T07:43:41.059Z,68.30
2023-02-05T07:46:12.049Z,63.60
2023-02-05T07:48:40.707Z,54.53
2023-02-05T07:51:18.060Z,56.47
2023-02-05T07:53:46.621Z,58.90
2023-02-05T07:56:15.656Z,55.10
2023-02-05T07:58:44.459Z,53.97
2023-02-05T08:01:13.126Z,56.90
2023-02-05T08:03:41.630Z,55.00
2023-02-05T08:06:16.310Z,54.60
2023-02-05T08:08:45.048Z,52.57
2023-02-05T08:11:16.452Z,55.70
2023-02-05T08:13:45.805Z,55.70
2023-02-05T08:16:16.668Z,54.03
2023-02-05T08:18:49.665Z,54.27
2023-02-05T08:21:21.819Z,54.77
2023-02-05T08:23:50.428Z,51.60
2023-02-05T08:26:19.504Z,50.83
2023-02-05T08:28:48.476Z,54.70
2023-02-05T08:31:19.641Z,50.37
2023-02-05T08:33:50.719Z,47.10
2023-02-05T08:36:20.906Z,48.33
2023-02-05T08:38:49.604Z,49.63
2023-02-05T08:41:18.694Z,50.87
2023-02-05T08:43:49.176Z,54.87
2023-02-05T08:46:21.290Z,50.13
2023-02-05T08:48:50.005Z,47.13
2023-02-05T08:51:20.854Z,45.20
2023-02-05T08:53:49.585Z,42.53
2023-02-05T08:56:20.203Z,48.20
2023-02-05T08:58:48.926Z,48.70
2023-02-05T09:01:18.422Z,50.40
2023-02-05T09:03:47.993Z,49.13
2023-02-05T09:06:17.261Z,50.93
2023-02-05T09:08:47.185Z,50.03
2023-02-05T09:11:21.038Z,50.57
2023-02-05T09:13:49.459Z,47.87
2023-02-05T09:16:18.337Z,48.93
2023-02-05T09:18:46.833Z,58.20
2023-02-05T09:21:15.559Z,55.37
2023-02-05T09:23:43.927Z,53.67
2023-02-05T09:26:13.948Z,53.50
2023-02-05T09:28:42.380Z,54.17
2023-02-05T09:31:15.035Z,59.47
2023-02-05T09:33:46.320Z,45.97
2023-02-05T09:36:18.131Z,49.30
2023-02-05T09:38:47.072Z,60.67
2023-02-05T09:41:26.277Z,46.90
2023-02-05T09:43:59.532Z,38.83
2023-02-05T09:46:38.492Z,31.40
2023-02-05T09:49:14.701Z,25.60
2023-02-05T09:51:46.030Z,26.33
2023-02-05T09:54:18.141Z,27.77
2023-02-05T09:56:49.627Z,22.53
2023-02-05T09:59:22.341Z,22.00
2023-02-05T10:01:53.786Z,29.70
2023-02-05T10:04:23.000Z,32.30
2023-02-05T10:07:14.721Z,28.37
2023-02-05T10:10:00.959Z,33.57
2023-02-05T10:12:45.046Z,34.33
2023-02-05T10:15:28.581Z,25.50
2023-02-05T10:18:07.027Z,28.87
2023-02-05T10:20:50.004Z,33.40
2023-02-05T10:23:24.955Z,23.40
2023-02-05T10:26:05.548Z,25.80
2023-02-05T10:28:51.653Z,25.73
2023-02-05T10:31:28.648Z,25.17
2023-02-05T10:34:06.384Z,24.10
2023-02-05T10:36:35.280Z,30.57
2023-02-05T10:39:13.062Z,26.77
2023-02-05T10:41:45.817Z,29.10
2023-02-05T10:44:22.111Z,25.40
2023-02-05T10:46:55.157Z,21.30
2023-02-05T10:49:27.414Z,25.97
2023-02-05T10:51:56.049Z,22.77
2023-02-05T10:54:28.433Z,27.37
2023-02-05T10:56:58.235Z,24.93
2023-02-05T10:59:30.927Z,24.20
2023-02-05T11:02:03.302Z,24.17
2023-02-05T11:04:38.936Z,20.27
2023-02-05T11:07:12.218Z,21.40
2023-02-05T11:09:41.452Z,22.50
2023-02-05T11:12:20.501Z,25.60
2023-02-05T11:14:59.088Z,18.73
2023-02-05T11:17:33.039Z,20.83
2023-02-05T11:20:07.193Z,20.27
2023-02-05T11:22:39.465Z,18.83
2023-02-05T11:25:18.409Z,25.93
2023-02-05T11:27:54.827Z,19.80
2023-02-05T11:30:51.965Z,17.93
2023-02-05T11:33:31.302Z,20.50
2023-02-05T11:36:03.217Z,18.20
2023-02-05T11:38:43.126Z,26.50
2023-02-05T11:41:14.209Z,24.13
2023-02-05T11:43:50.145Z,21.70
2023-02-05T11:46:23.881Z,24.33
2023-02-05T11:49:00.029Z,18.00
2023-02-05T11:51:39.923Z,21.30
2023-02-05T11:54:18.322Z,22.97
2023-02-05T11:57:08.086Z,21.60
2023-02-05T11:59:37.735Z,13.67
2023-02-05T12:02:30.322Z,19.77
2023-02-05T12:05:03.775Z,28.07
2023-02-05T12:07:39.106Z,26.03
2023-02-05T12:10:16.957Z,21.07
2023-02-05T12:12:56.745Z,24.13
2023-02-05T12:15:28.658Z,20.83
2023-02-05T12:18:08.588Z,24.80
2023-02-05T12:20:41.981Z,22.70
2023-02-05T12:23:28.014Z,25.83
2023-02-05T12:26:14.470Z,24.40
2023-02-05T12:28:55.129Z,32.47
2023-02-05T12:31:30.973Z,20.70
2023-02-05T12:34:20.971Z,21.17
2023-02-05T12:37:08.629Z,23.17
2023-02-05T12:39:46.948Z,26.87
2023-02-05T12:42:29.936Z,23.00
2023-02-05T12:45:19.872Z,24.57
2023-02-05T12:48:04.720Z,31.07
2023-02-05T12:50:49.470Z,24.73
2023-02-05T12:53:39.050Z,33.77
2023-02-05T12:56:33.025Z,29.67
2023-02-05T12:59:04.821Z,30.07
2023-02-05T13:01:41.969Z,32.50
2023-02-05T13:04:21.601Z,27.47
2023-02-05T13:06:56.967Z,27.27
2023-02-05T13:09:31.667Z,27.43
2023-02-05T13:12:06.163Z,27.90
2023-02-05T13:14:40.747Z,32.27
2023-02-05T13:17:16.605Z,44.07
2023-02-05T13:19:49.293Z,29.37
2023-02-05T13:22:40.732Z,34.23
2023-02-05T13:25:39.126Z,32.17
2023-02-05T13:28:43.386Z,37.20
2023-02-05T13:31:20.069Z,40.57
2023-02-05T13:33:49.034Z,25.70
2023-02-05T13:36:45.312Z,34.13
2023-02-05T13:39:34.543Z,31.07
2023-02-05T13:42:20.661Z,22.87
2023-02-05T13:45:19.292Z,29.57
2023-02-05T13:48:10.412Z,31.93
2023-02-05T13:51:15.702Z,24.87
2023-02-05T13:53:58.104Z,20.57
2023-02-05T13:56:42.516Z,34.87
2023-02-05T13:59:17.996Z,24.30
2023-02-05T14:01:52.895Z,40.47
2023-02-05T14:04:26.453Z,23.77
2023-02-05T14:07:01.787Z,28.57
2023-02-05T14:09:41.860Z,28.90
2023-02-05T14:12:14.484Z,34.17
2023-02-05T14:14:43.405Z,32.30
2023-02-05T14:17:53.506Z,31.33
2023-02-05T14:20:38.180Z,24.77
2023-02-05T14:23:38.115Z,33.10
2023-02-05T14:26:10.564Z,32.03
2023-02-05T14:28:52.734Z,25.70
2023-02-05T14:31:47.550Z,35.17
2023-02-05T14:34:48.544Z,27.33
2023-02-05T14:37:38.210Z,33.33
2023-02-05T14:40:24.452Z,27.27
2023-02-05T14:43:08.450Z,25.53
2023-02-05T14:45:45.225Z,34.20
2023-02-05T14:48:22.950Z,26.60
2023-02-05T14:51:03.651Z,30.80
2023-02-05T14:53:33.207Z,25.67
2023-02-05T14:56:03.317Z,25.50
2023-02-05T14:58:34.805Z,36.97
2023-02-05T15:01:41.718Z,27.17
2023-02-05T15:04:40.059Z,30.47
2023-02-05T15:07:15.122Z,29.33
2023-02-05T15:09:47.828Z,22.93
2023-02-05T15:12:35.175Z,23.67
2023-02-05T15:15:27.989Z,21.80
2023-02-05T15:18:03.858Z,23.73
2023-02-05T15:20:36.263Z,25.03
2023-02-05T15:23:30.775Z,31.33
2023-02-05T15:26:02.923Z,33.00
2023-02-05T15:28:40.592Z,40.13
2023-02-05T15:31:22.872Z,31.87
2023-02-05T15:34:00.898Z,48.27
2023-02-05T15:36:37.599Z,29.90
2023-02-05T15:39:19.980Z,34.10
2023-02-05T15:41:49.928Z,25.63
2023-02-05T15:44:28.104Z,31.73
2023-02-05T15:46:58.612Z,24.47
2023-02-05T15:49:35.988Z,38.17
2023-02-05T15:52:05.136Z,37.10
2023-02-05T15:54:36.925Z,32.97
2023-02-05T15:57:06.675Z,30.70
2023-02-05T15:59:36.150Z,32.17
2023-02-05T16:02:09.520Z,33.63
2023-02-05T16:04:40.099Z,41.83
2023-02-05T16:07:20.371Z,32.60
2023-02-05T16:09:52.183Z,37.13
2023-02-05T16:12:21.275Z,32.10
2023-02-05T16:14:59.719Z,35.23
2023-02-05T16:17:32.846Z,36.87
2023-02-05T16:20:20.407Z,33.50
2023-02-05T16:22:55.324Z,49.73
2023-02-05T16:25:36.262Z,33.27
2023-02-05T16:28:08.610Z,49.20
2023-02-05T16:30:42.627Z,44.57
2023-02-05T16:33:26.709Z,36.77
2023-02-05T16:35:59.040Z,43.80
2023-02-05T16:38:28.317Z,42.70
2023-02-05T16:40:59.684Z,51.30
2023-02-05T16:43:31.870Z,46.33
2023-02-05T16:46:24.008Z,45.00
2023-02-05T16:48:54.434Z,62.00
2023-02-05T16:51:47.504Z,58.43
2023-02-05T16:54:34.266Z,50.40
2023-02-05T16:57:08.450Z,47.87
2023-02-05T16:59:49.956Z,56.97
2023-02-05T17:02:29.201Z,51.10
2023-02-05T17:04:59.496Z,46.70
2023-02-05T17:07:31.155Z,54.33
2023-02-05T17:10:22.084Z,54.43
2023-02-05T17:12:56.615Z,55.53
2023-02-05T17:15:40.155Z,57.83
2023-02-05T17:18:27.798Z,51.30
2023-02-05T17:21:22.187Z,48.00
2023-02-05T17:23:53.532Z,58.53
2023-02-05T17:26:22.138Z,50.57
2023-02-05T17:28:56.332Z,54.67
2023-02-05T17:31:26.633Z,57.87
2023-02-05T17:33:57.376Z,57.30
2023-02-05T17:36:26.176Z,61.40
2023-02-05T17:38:57.495Z,57.37
2023-02-05T17:41:45.153Z,52.63
2023-02-05T17:44:15.682Z,55.13
2023-02-05T17:46:44.923Z,57.43
2023-02-05T17:49:13.636Z,63.70
2023-02-05T17:51:42.881Z,60.07
2023-02-05T17:54:16.177Z,63.00
2023-02-05T17:56:46.734Z,62.73
2023-02-05T17:59:17.843Z,66.17
2023-02-05T18:01:46.975Z,58.73
2023-02-05T18:04:16.046Z,74.63
2023-02-05T18:06:44.947Z,72.17
2023-02-05T18:09:16.343Z,54.17
2023-02-05T18:11:44.774Z,82.90
2023-02-05T18:14:13.775Z,57.70
2023-02-05T18:16:42.504Z,66.13
2023-02-05T18:19:11.566Z,70.27
2023-02-05T18:21:39.985Z,115.43
2023-02-05T18:24:08.996Z,121.50
2023-02-05T18:26:39.302Z,133.03
2023-02-05T18:29:08.222Z,134.33
2023-02-05T18:31:37.513Z,90.97
2023-02-05T18:34:06.212Z,80.73
2023-02-05T18:36:34.732Z,85.33
2023-02-05T18:39:03.551Z,79.00
2023-02-05T18:41:32.607Z,86.87
2023-02-05T18:44:02.752Z,99.63
2023-02-05T18:46:31.287Z,131.30
2023-02-05T18:49:00.125Z,140.30
2023-02-05T18:51:29.309Z,150.27
2023-02-05T18:53:59.550Z,163.53
2023-02-05T18:56:29.558Z,168.73
2023-02-05T18:59:02.205Z,186.87
2023-02-05T19:01:34.385Z,138.77
2023-02-05T19:04:05.582Z,165.17
2023-02-05T19:06:34.348Z,136.60
2023-02-05T19:09:04.051Z,125.53
2023-02-05T19:11:34.006Z,163.50
2023-02-05T19:14:05.018Z,167.47
2023-02-05T19:16:36.905Z,166.80
2023-02-05T19:19:05.986Z,163.27
2023-02-05T19:21:36.142Z,179.47
2023-02-05T19:24:09.697Z,176.73
2023-02-05T19:26:40.105Z,151.80
2023-02-05T19:29:13.366Z,165.83
2023-02-05T19:31:43.995Z,148.10
2023-02-05T19:34:14.037Z,169.77
2023-02-05T19:36:43.272Z,200.40
2023-02-05T19:39:14.255Z,196.63
2023-02-05T19:41:45.712Z,162.80
2023-02-05T19:44:14.880Z,174.53
2023-02-05T19:46:46.821Z,164.13
2023-02-05T19:49:18.722Z,151.20
2023-02-05T19:51:50.839Z,164.50
2023-02-05T19:54:21.712Z,162.83
2023-02-05T19:56:51.646Z,179.83
2023-02-05T19:59:21.247Z,176.37
2023-02-05T20:01:51.760Z,166.50
2023-02-05T20:04:25.505Z,174.60
2023-02-05T20:06:57.080Z,165.83
2023-02-05T20:09:28.596Z,198.97
2023-02-05T20:11:58.482Z,193.53
2023-02-05T20:14:27.988Z,243.27
2023-02-05T20:17:01.595Z,269.80
2023-02-05T20:19:30.771Z,295.77
2023-02-05T20:21:59.449Z,262.93
2023-02-05T20:24:30.795Z,238.10
2023-02-05T20:26:59.854Z,282.57
2023-02-05T20:29:46.977Z,303.27
2023-02-05T20:32:18.352Z,272.63
2023-02-05T20:34:50.619Z,260.80
2023-02-05T20:37:20.093Z,219.60
2023-02-05T20:39:49.784Z,241.80
2023-02-05T20:42:19.187Z,228.73
2023-02-05T20:44:48.930Z,220.53
2023-02-05T20:47:19.070Z,212.87
2023-02-05T20:49:48.191Z,184.80
2023-02-05T20:52:18.450Z,172.07
2023-02-05T20:54:47.718Z,174.97
2023-02-05T20:57:18.383Z,171.03
2023-02-05T20:59:51.586Z,180.10
2023-02-05T21:02:23.662Z,216.13
2023-02-05T21:04:52.981Z,235.90
2023-02-05T21:07:25.229Z,243.27
2023-02-05T21:09:54.778Z,233.53
2023-02-05T21:12:27.958Z,205.17
2023-02-05T21:14:56.980Z,199.97
2023-02-05T21:17:26.817Z,185.43
2023-02-05T21:19:55.532Z,183.93
2023-02-05T21:22:25.640Z,208.93
2023-02-05T21:24:54.349Z,185.77
2023-02-05T21:27:24.233Z,176.50
2023-02-05T21:29:52.963Z,203.33
2023-02-05T21:32:21.556Z,190.57
2023-02-05T21:34:52.239Z,218.83
2023-02-05T21:37:20.697Z,193.87
2023-02-05T21:39:52.713Z,218.77
2023-02-05T21:42:21.307Z,213.30
2023-02-05T21:44:53.622Z,214.73
2023-02-05T21:47:22.039Z,200.23
2023-02-05T21:49:52.315Z,195.80
2023-02-05T21:52:20.729Z,224.83
2023-02-05T21:54:50.638Z,200.80
2023-02-05T21:57:19.194Z,222.53
2023-02-05T21:59:49.524Z,206.67
2023-02-05T22:02:18.012Z,155.80
2023-02-05T22:04:46.898Z,220.50
2023-02-05T22:07:16.803Z,206.97
2023-02-05T22:09:45.415Z,193.63
2023-02-05T22:12:13.757Z,221.10
2023-02-05T22:14:42.600Z,232.83
2023-02-05T22:17:10.958Z,200.03
2023-02-05T22:19:39.639Z,219.57
2023-02-05T22:22:07.978Z,217.00
2023-02-05T22:24:38.012Z,231.90
2023-02-05T22:27:06.508Z,243.93
2023-02-05T22:29:35.228Z,200.50
2023-02-05T22:32:03.627Z,196.67
2023-02-05T22:34:32.263Z,177.77
2023-02-05T22:37:00.696Z,164.93
2023-02-05T22:39:29.322Z,185.53
2023-02-05T22:41:59.216Z,191.03
2023-02-05T22:44:27.985Z,196.97
2023-02-05T22:46:56.317Z,217.53
2023-02-05T22:49:24.980Z,223.80
2023-02-05T22:51:54.161Z,212.73
2023-02-05T22:54:22.845Z,230.60
2023-02-05T22:56:51.254Z,242.13
2023-02-05T22:59:21.328Z,234.57
2023-02-05T23:01:49.692Z,233.07
2023-02-05T23:04:18.470Z,224.00
2023-02-05T23:06:46.818Z,215.13
2023-02-05T23:09:17.538Z,210.67
2023-02-05T23:11:46.521Z,255.10
2023-02-05T23:14:17.381Z,260.30
2023-02-05T23:16:48.889Z,235.17
2023-02-05T23:19:19.808Z,227.00
2023-02-05T23:21:48.437Z,205.43
2023-02-05T23:24:17.594Z,157.53
2023-02-05T23:26:48.044Z,128.83
2023-02-05T23:29:18.282Z,144.87
2023-02-05T23:31:48.120Z,170.90
2023-02-05T23:34:16.831Z,175.40
2023-02-05T23:36:45.239Z,162.83
2023-02-05T23:39:13.961Z,136.33
2023-02-05T23:41:42.336Z,131.57
2023-02-05T23:44:14.022Z,128.43
2023-02-05T23:46:44.015Z,136.63
2023-02-05T23:49:14.492Z,138.40
2023-02-05T23:51:43.604Z,153.93
2023-02-05T23:54:12.705Z,180.13
2023-02-05T23:56:41.348Z,190.07
2023-02-05T23:59:11.218Z,175.13
